createdAt,value
2019-02-22T00:00:30.419Z,4.00
2019-02-22T00:01:10.180Z,4.00
2019-02-22T00:02:09.402Z,4.00
2019-02-22T00:03:09.366Z,4.00
2019-02-22T00:04:30.420Z,4.00
2019-02-22T00:05:30.386Z,4.00
2019-02-22T00:06:09.381Z,4.00
2019-02-22T00:07:09.374Z,4.00
2019-02-22T00:08:09.374Z,4.00
2019-02-22T00:09:30.369Z,4.00
2019-02-22T00:10:30.553Z,4.00
2019-02-22T00:11:09.381Z,4.00
2019-02-22T00:12:09.351Z,4.00
2019-02-22T00:13:09.340Z,4.00
2019-02-22T00:14:30.366Z,4.00
2019-02-22T00:15:30.332Z,4.00
2019-02-22T00:16:09.320Z,4.00
2019-02-22T00:17:09.327Z,4.00
2019-02-22T00:18:09.316Z,4.00
2019-02-22T00:19:30.353Z,4.00
2019-02-22T00:20:30.325Z,4.00
2019-02-22T00:21:09.305Z,4.00
2019-02-22T00:22:09.310Z,4.00
2019-02-22T00:23:09.363Z,4.00
2019-02-22T00:24:30.304Z,4.00
2019-02-22T00:25:30.284Z,4.00
2019-02-22T00:26:10.964Z,4.00
2019-02-22T00:27:09.262Z,4.00
2019-02-22T00:28:09.277Z,4.00
2019-02-22T00:29:30.281Z,4.00
2019-02-22T00:30:30.264Z,4.00
2019-02-22T00:31:09.299Z,4.00
2019-02-22T00:32:10.244Z,4.00
2019-02-22T00:33:09.244Z,4.00
2019-02-22T00:34:30.251Z,4.00
2019-02-22T00:35:30.331Z,4.00
2019-02-22T00:36:09.239Z,4.00
2019-02-22T00:37:09.284Z,4.00
2019-02-22T00:38:09.231Z,4.00
2019-02-22T00:39:30.225Z,4.00
2019-02-22T00:40:30.219Z,4.00
2019-02-22T00:41:12.257Z,4.00
2019-02-22T00:42:09.199Z,4.00
2019-02-22T00:43:09.197Z,4.00
2019-02-22T00:44:30.205Z,4.00
2019-02-22T00:45:30.191Z,4.00
2019-02-22T00:46:09.180Z,4.00
2019-02-22T00:47:09.193Z,4.00
2019-02-22T00:48:09.182Z,4.00
2019-02-22T00:49:30.182Z,4.00
2019-02-22T00:50:30.178Z,4.00
2019-02-22T00:51:09.161Z,4.00
2019-02-22T00:52:09.158Z,4.00
2019-02-22T00:53:11.460Z,4.00
2019-02-22T00:54:30.153Z,4.00
2019-02-22T00:55:30.148Z,4.00
2019-02-22T00:56:09.136Z,4.00
2019-02-22T00:57:09.168Z,4.00
2019-02-22T00:58:09.129Z,4.00
2019-02-22T00:59:30.132Z,4.00
2019-02-22T01:00:32.083Z,4.00
2019-02-22T01:01:09.107Z,4.00
2019-02-22T01:02:09.116Z,4.00
2019-02-22T01:03:09.097Z,4.00
2019-02-22T01:04:30.104Z,4.00
2019-02-22T01:05:30.099Z,4.00
2019-02-22T01:06:09.091Z,4.00
2019-02-22T01:07:09.081Z,4.00
2019-02-22T01:08:09.075Z,4.00
2019-02-22T01:09:30.049Z,4.00
2019-02-22T01:10:31.510Z,4.00
2019-02-22T01:11:09.058Z,4.00
2019-02-22T01:12:09.053Z,4.00
2019-02-22T01:13:09.057Z,4.00
2019-02-22T01:14:30.060Z,4.00
2019-02-22T01:15:30.041Z,4.00
2019-02-22T01:16:09.039Z,4.00
2019-02-22T01:17:09.036Z,4.00
2019-02-22T01:18:09.023Z,4.00
2019-02-22T01:19:30.032Z,4.00
2019-02-22T01:20:30.027Z,4.00
2019-02-22T01:21:09.019Z,4.00
2019-02-22T01:22:09.009Z,4.00
2019-02-22T01:23:09.001Z,4.00
2019-02-22T01:24:30.011Z,4.00
2019-02-22T01:25:30.013Z,4.00
2019-02-22T01:26:08.987Z,4.00
2019-02-22T01:27:08.975Z,4.00
2019-02-22T01:28:08.984Z,4.00
2019-02-22T01:29:29.987Z,4.00
2019-02-22T01:30:29.986Z,4.00
2019-02-22T01:31:08.960Z,4.00
2019-02-22T01:32:08.961Z,4.00
2019-02-22T01:33:09.390Z,4.00
2019-02-22T01:34:29.961Z,4.00
2019-02-22T01:35:29.971Z,4.00
2019-02-22T01:36:08.946Z,4.00
2019-02-22T01:37:08.938Z,4.00
2019-02-22T01:38:08.936Z,4.00
2019-02-22T01:39:29.945Z,4.00
2019-02-22T01:40:29.928Z,4.00
2019-02-22T01:41:08.914Z,4.00
2019-02-22T01:42:08.919Z,4.00
2019-02-22T01:43:08.900Z,4.00
2019-02-22T01:44:29.908Z,4.00
2019-02-22T01:45:29.903Z,4.00
2019-02-22T01:46:08.897Z,4.00
2019-02-22T01:47:08.903Z,4.00
2019-02-22T01:48:08.886Z,4.00
2019-02-22T01:49:29.893Z,4.00
2019-02-22T01:50:29.868Z,4.00
2019-02-22T01:51:08.875Z,4.00
2019-02-22T01:52:08.864Z,4.00
2019-02-22T01:53:08.857Z,4.00
2019-02-22T01:54:29.851Z,4.00
2019-02-22T01:55:29.852Z,4.00
2019-02-22T01:56:08.845Z,4.00
2019-02-22T01:57:08.842Z,4.00
2019-02-22T01:58:08.835Z,4.00
2019-02-22T01:59:29.865Z,4.00
2019-02-22T02:00:29.828Z,4.00
2019-02-22T02:01:08.802Z,4.00
2019-02-22T02:02:08.808Z,4.00
2019-02-22T02:03:08.791Z,4.00
2019-02-22T02:04:29.817Z,4.00
2019-02-22T02:05:29.801Z,4.00
2019-02-22T02:06:08.793Z,4.00
2019-02-22T02:07:08.809Z,4.00
2019-02-22T02:08:08.757Z,4.00
2019-02-22T02:09:29.781Z,4.00
2019-02-22T02:10:29.732Z,4.00
2019-02-22T02:11:08.759Z,4.00
2019-02-22T02:12:08.765Z,4.00
2019-02-22T02:13:08.759Z,4.00
2019-02-22T02:14:29.945Z,4.00
2019-02-22T02:15:29.759Z,4.00
2019-02-22T02:16:08.744Z,4.00
2019-02-22T02:17:08.732Z,4.00
2019-02-22T02:18:08.750Z,4.00
2019-02-22T02:19:29.766Z,4.00
2019-02-22T02:20:29.789Z,4.00
2019-02-22T02:21:08.717Z,4.00
2019-02-22T02:22:08.710Z,4.00
2019-02-22T02:23:08.698Z,4.00
2019-02-22T02:24:29.708Z,4.00
2019-02-22T02:25:29.722Z,4.00
2019-02-22T02:26:08.708Z,4.00
2019-02-22T02:27:08.681Z,4.00
2019-02-22T02:28:08.699Z,4.00
2019-02-22T02:29:29.679Z,4.00
2019-02-22T02:30:29.682Z,4.00
2019-02-22T02:31:08.669Z,4.00
2019-02-22T02:32:08.665Z,4.00
2019-02-22T02:33:08.655Z,4.00
2019-02-22T02:34:29.655Z,4.00
2019-02-22T02:35:29.641Z,4.00
2019-02-22T02:36:08.632Z,4.00
2019-02-22T02:37:08.638Z,4.00
2019-02-22T02:38:08.639Z,4.00
2019-02-22T02:39:29.643Z,4.00
2019-02-22T02:40:29.625Z,4.00
2019-02-22T02:41:11.240Z,4.00
2019-02-22T02:42:08.589Z,4.00
2019-02-22T02:43:08.599Z,4.00
2019-02-22T02:44:29.587Z,4.00
2019-02-22T02:45:30.302Z,4.00
2019-02-22T02:46:08.589Z,4.00
2019-02-22T02:47:08.590Z,4.00
2019-02-22T02:48:08.582Z,4.00
2019-02-22T02:49:29.581Z,4.00
2019-02-22T02:50:29.595Z,4.00
2019-02-22T02:51:08.569Z,4.00
2019-02-22T02:52:08.561Z,4.00
2019-02-22T02:53:08.553Z,4.00
2019-02-22T02:54:29.589Z,4.00
2019-02-22T02:55:29.548Z,4.00
2019-02-22T02:56:08.536Z,4.00
2019-02-22T02:57:08.504Z,4.00
2019-02-22T02:58:08.531Z,4.00
2019-02-22T02:59:29.531Z,4.00
2019-02-22T03:00:29.515Z,4.00
2019-02-22T03:01:08.567Z,4.00
2019-02-22T03:02:08.511Z,4.00
2019-02-22T03:03:08.505Z,4.00
2019-02-22T03:04:29.507Z,4.00
2019-02-22T03:05:29.553Z,4.00
2019-02-22T03:06:08.487Z,4.00
2019-02-22T03:07:08.472Z,4.00
2019-02-22T03:08:08.489Z,4.00
2019-02-22T03:09:29.477Z,4.00
2019-02-22T03:10:31.479Z,4.00
2019-02-22T03:11:19.749Z,4.00
2019-02-22T03:12:08.440Z,4.00
2019-02-22T03:13:08.443Z,4.00
2019-02-22T03:14:29.446Z,4.00
2019-02-22T03:15:29.441Z,4.00
2019-02-22T03:16:08.424Z,4.00
2019-02-22T03:17:08.420Z,4.00
2019-02-22T03:18:08.393Z,4.00
2019-02-22T03:19:29.421Z,4.00
2019-02-22T03:20:29.400Z,4.00
2019-02-22T03:21:08.409Z,4.00
2019-02-22T03:22:08.402Z,4.00
2019-02-22T03:23:08.395Z,4.00
2019-02-22T03:24:29.500Z,4.00
2019-02-22T03:25:29.392Z,4.00
2019-02-22T03:26:08.378Z,4.00
2019-02-22T03:27:08.378Z,4.00
2019-02-22T03:28:08.401Z,4.00
2019-02-22T03:29:29.384Z,4.00
2019-02-22T03:30:29.371Z,4.00
2019-02-22T03:31:08.495Z,4.00
2019-02-22T03:32:08.349Z,4.00
2019-02-22T03:33:08.354Z,4.00
2019-02-22T03:34:29.373Z,4.00
2019-02-22T03:35:29.400Z,4.00
2019-02-22T03:36:08.945Z,4.00
2019-02-22T03:37:08.337Z,4.00
2019-02-22T03:38:08.313Z,4.00
2019-02-22T03:39:29.299Z,4.00
2019-02-22T03:40:29.311Z,4.00
2019-02-22T03:41:08.311Z,4.00
2019-02-22T03:42:08.282Z,4.00
2019-02-22T03:43:08.294Z,4.00
2019-02-22T03:44:29.262Z,4.00
2019-02-22T03:45:29.262Z,4.00
2019-02-22T03:46:08.260Z,4.00
2019-02-22T03:47:08.254Z,4.00
2019-02-22T03:48:08.250Z,4.00
2019-02-22T03:49:29.258Z,4.00
2019-02-22T03:50:29.245Z,4.00
2019-02-22T03:51:08.256Z,4.00
2019-02-22T03:52:08.237Z,4.00
2019-02-22T03:53:08.230Z,4.00
2019-02-22T03:54:29.236Z,4.00
2019-02-22T03:55:29.225Z,4.00
2019-02-22T03:56:08.289Z,4.00
2019-02-22T03:57:08.203Z,4.00
2019-02-22T03:58:08.202Z,4.00
2019-02-22T03:59:29.209Z,4.00
2019-02-22T04:00:29.213Z,4.00
2019-02-22T04:01:08.190Z,4.00
2019-02-22T04:02:08.179Z,4.00
2019-02-22T04:03:08.169Z,4.00
2019-02-22T04:04:29.177Z,4.00
2019-02-22T04:05:29.246Z,4.00
2019-02-22T04:06:08.168Z,4.00
2019-02-22T04:07:09.164Z,4.00
2019-02-22T04:08:08.159Z,4.00
2019-02-22T04:09:29.138Z,4.00
2019-02-22T04:10:29.184Z,4.00
2019-02-22T04:11:08.127Z,4.00
2019-02-22T04:12:08.123Z,4.00
2019-02-22T04:13:08.128Z,4.00
2019-02-22T04:14:29.140Z,4.00
2019-02-22T04:15:29.160Z,4.00
2019-02-22T04:16:08.106Z,4.00
2019-02-22T04:17:08.105Z,4.00
2019-02-22T04:19:40.807Z,8.00
2019-02-22T04:20:40.794Z,8.00
2019-02-22T04:22:35.140Z,8.00
2019-02-22T04:23:35.131Z,8.00
2019-02-22T04:25:29.515Z,8.00
2019-02-22T04:26:29.488Z,8.00
2019-02-22T04:28:23.850Z,8.00
2019-02-22T04:29:23.858Z,8.00
2019-02-22T04:31:18.401Z,8.00
2019-02-22T04:32:18.203Z,8.00
2019-02-22T04:34:12.563Z,8.00
2019-02-22T04:35:12.552Z,4.00
2019-02-22T04:37:06.952Z,4.00
2019-02-22T04:38:06.916Z,4.00
2019-02-22T04:40:01.289Z,4.00
2019-02-22T04:41:01.279Z,4.00
2019-02-22T04:42:55.662Z,4.00
2019-02-22T04:43:55.625Z,4.00
2019-02-22T04:45:49.982Z,4.00
2019-02-22T04:46:49.993Z,4.00
2019-02-22T04:48:44.376Z,4.00
2019-02-22T04:49:44.335Z,4.00
2019-02-22T04:51:38.708Z,4.00
2019-02-22T04:52:38.698Z,4.00
2019-02-22T04:54:33.174Z,4.00
2019-02-22T04:55:33.061Z,4.00
2019-02-22T04:57:27.416Z,4.00
2019-02-22T04:58:27.406Z,4.00
2019-02-22T05:00:21.813Z,4.00
2019-02-22T05:01:21.764Z,4.00
2019-02-22T05:03:16.138Z,4.00
2019-02-22T05:04:16.129Z,4.00
2019-02-22T05:06:10.579Z,4.00
2019-02-22T05:07:10.487Z,4.00
2019-02-22T05:09:04.853Z,4.00
2019-02-22T05:10:04.845Z,4.00
2019-02-22T05:12:10.409Z,4.00
2019-02-22T05:12:59.207Z,4.00
2019-02-22T05:14:53.570Z,4.00
2019-02-22T05:15:53.560Z,4.00
2019-02-22T05:17:48.004Z,4.00
2019-02-22T05:18:47.921Z,4.00
2019-02-22T05:20:42.288Z,4.00
2019-02-22T05:21:42.281Z,4.00
2019-02-22T05:23:36.651Z,4.00
2019-02-22T05:24:36.642Z,4.00
2019-02-22T05:26:30.995Z,4.00
2019-02-22T05:27:30.988Z,4.00
2019-02-22T05:29:25.366Z,4.00
2019-02-22T05:30:25.340Z,4.00
2019-02-22T05:32:19.712Z,4.00
2019-02-22T05:33:19.711Z,4.00
2019-02-22T05:35:14.094Z,4.00
2019-02-22T05:36:14.052Z,4.00
2019-02-22T05:38:08.420Z,4.00
2019-02-22T05:39:18.435Z,4.00
2019-02-22T05:41:02.807Z,4.00
2019-02-22T05:42:02.776Z,4.00
2019-02-22T05:43:57.146Z,4.00
2019-02-22T05:44:57.128Z,4.00
2019-02-22T05:46:59.848Z,8.00
2019-02-22T05:47:51.489Z,8.00
2019-02-22T05:49:45.862Z,8.00
2019-02-22T05:50:45.848Z,4.00
2019-02-22T05:52:40.226Z,4.00
2019-02-22T05:53:40.212Z,4.00
2019-02-22T05:55:34.586Z,8.00
2019-02-22T05:56:34.582Z,8.00
2019-02-22T05:58:28.941Z,8.00
2019-02-22T05:59:28.935Z,12.00
2019-02-22T06:01:23.295Z,12.00
2019-02-22T06:02:23.288Z,8.00
2019-02-22T06:04:17.680Z,12.00
2019-02-22T06:05:17.648Z,16.00
2019-02-22T06:07:14.479Z,20.00
2019-02-22T06:08:12.004Z,20.00
2019-02-22T06:10:06.407Z,20.00
2019-02-22T06:11:06.369Z,24.00
2019-02-22T06:13:00.733Z,32.00
2019-02-22T06:14:00.733Z,32.00
2019-02-22T06:15:55.112Z,40.00
2019-02-22T06:16:55.086Z,44.00
2019-02-22T06:18:49.475Z,52.00
2019-02-22T06:19:49.442Z,56.00
2019-02-22T06:21:43.829Z,64.00
2019-02-22T06:22:43.805Z,68.00
2019-02-22T06:24:38.167Z,72.00
2019-02-22T06:25:38.157Z,80.00
2019-02-22T06:27:32.549Z,84.00
2019-02-22T06:28:32.524Z,84.00
2019-02-22T06:30:26.879Z,88.00
2019-02-22T06:31:26.866Z,88.00
2019-02-22T06:33:21.500Z,80.00
2019-02-22T06:34:21.228Z,92.00
2019-02-22T06:36:15.621Z,96.00
2019-02-22T06:37:15.587Z,88.00
2019-02-22T06:39:09.950Z,100.00
2019-02-22T06:40:09.934Z,104.00
2019-02-22T06:42:04.299Z,104.00
2019-02-22T06:43:04.289Z,96.00
2019-02-22T06:44:58.658Z,128.00
2019-02-22T06:45:58.697Z,156.00
2019-02-22T06:47:53.025Z,168.00
2019-02-22T06:48:53.007Z,164.00
2019-02-22T06:50:50.575Z,132.00
2019-02-22T06:51:50.663Z,136.00
2019-02-22T06:53:44.922Z,156.00
2019-02-22T06:54:44.915Z,136.00
2019-02-22T06:56:39.299Z,152.00
2019-02-22T06:57:39.278Z,188.00
2019-02-22T06:59:33.783Z,156.00
2019-02-22T07:00:33.630Z,196.00
2019-02-22T07:02:28.032Z,184.00
2019-02-22T07:03:27.990Z,208.00
2019-02-22T07:05:22.356Z,228.00
2019-02-22T07:06:22.348Z,204.00
2019-02-22T07:08:16.822Z,192.00
2019-02-22T07:09:16.728Z,192.00
2019-02-22T07:11:11.099Z,200.00
2019-02-22T07:12:11.100Z,224.00
2019-02-22T07:14:05.470Z,260.00
2019-02-22T07:15:05.448Z,228.00
2019-02-22T07:16:59.815Z,212.00
2019-02-22T07:17:59.810Z,216.00
2019-02-22T07:19:54.173Z,232.00
2019-02-22T07:20:54.164Z,340.00
2019-02-22T07:22:48.523Z,420.00
2019-02-22T07:23:48.511Z,364.00
2019-02-22T07:25:42.965Z,364.00
2019-02-22T07:26:42.870Z,360.00
2019-02-22T07:28:37.238Z,336.00
2019-02-22T07:29:37.234Z,312.00
2019-02-22T07:31:31.699Z,304.00
2019-02-22T07:32:31.582Z,308.00
2019-02-22T07:34:26.135Z,388.00
2019-02-22T07:35:26.073Z,440.00
2019-02-22T07:37:20.581Z,428.00
2019-02-22T07:38:20.531Z,480.00
2019-02-22T07:40:14.904Z,588.00
2019-02-22T07:41:14.958Z,596.00
2019-02-22T07:43:09.340Z,628.00
2019-02-22T07:44:09.270Z,660.00
2019-02-22T07:46:03.643Z,704.00
2019-02-22T07:47:03.625Z,684.00
2019-02-22T07:48:58.020Z,596.00
2019-02-22T07:49:57.978Z,628.00
2019-02-22T07:51:52.345Z,600.00
2019-02-22T07:52:52.336Z,732.00
2019-02-22T07:54:46.750Z,708.00
2019-02-22T07:55:46.694Z,848.00
2019-02-22T07:57:41.083Z,796.00
2019-02-22T07:58:41.072Z,804.00
2019-02-22T08:00:35.475Z,932.00
2019-02-22T08:01:46.601Z,928.00
2019-02-22T08:03:29.819Z,968.00
2019-02-22T08:04:29.785Z,1076.00
2019-02-22T08:06:24.258Z,1136.00
2019-02-22T08:07:24.149Z,1144.00
2019-02-22T08:09:18.541Z,1292.00
2019-02-22T08:10:18.499Z,1244.00
2019-02-22T08:12:12.874Z,1164.00
2019-02-22T08:13:19.739Z,1088.00
2019-02-22T08:15:07.245Z,1024.00
2019-02-22T08:16:07.216Z,1140.00
2019-02-22T08:18:01.618Z,1484.00
2019-02-22T08:19:02.102Z,1516.00
2019-02-22T08:20:56.053Z,1468.00
2019-02-22T08:21:56.018Z,1528.00
2019-02-22T08:23:50.388Z,1408.00
2019-02-22T08:24:50.409Z,1428.00
2019-02-22T08:26:44.920Z,1392.00
2019-02-22T08:27:52.958Z,1368.00
2019-02-22T08:29:39.388Z,1356.00
2019-02-22T08:30:39.248Z,1416.00
2019-02-22T08:32:33.674Z,1396.00
2019-02-22T08:33:33.633Z,1420.00
2019-02-22T08:35:27.995Z,1428.00
2019-02-22T08:36:27.987Z,1440.00
2019-02-22T08:38:22.378Z,1584.00
2019-02-22T08:39:22.336Z,1492.00
2019-02-22T08:41:15.696Z,1492.00
2019-02-22T08:42:15.691Z,1408.00
2019-02-22T08:44:10.548Z,1532.00
2019-02-22T08:45:10.050Z,1544.00
2019-02-22T08:47:04.401Z,1320.00
2019-02-22T08:48:04.393Z,1320.00
2019-02-22T08:49:58.818Z,1228.00
2019-02-22T08:50:58.766Z,1180.00
2019-02-22T08:52:53.148Z,1188.00
2019-02-22T08:53:53.132Z,1212.00
2019-02-22T08:55:47.522Z,1324.00
2019-02-22T08:56:47.483Z,1420.00
2019-02-22T08:58:41.848Z,1572.00
2019-02-22T08:59:41.843Z,1624.00
2019-02-22T09:01:36.240Z,1768.00
2019-02-22T09:02:36.200Z,1848.00
2019-02-22T09:04:30.578Z,1752.00
2019-02-22T09:05:30.636Z,1760.00
2019-02-22T09:07:24.957Z,1936.00
2019-02-22T09:08:24.918Z,1956.00
2019-02-22T09:10:19.298Z,1876.00
2019-02-22T09:11:19.277Z,1856.00
2019-02-22T09:13:13.749Z,1992.00
2019-02-22T09:14:13.663Z,1912.00
2019-02-22T09:16:08.020Z,1480.00
2019-02-22T09:17:07.998Z,1484.00
2019-02-22T09:19:02.370Z,1100.00
2019-02-22T09:20:02.361Z,1212.00
2019-02-22T09:21:56.727Z,928.00
2019-02-22T09:22:56.713Z,764.00
2019-02-22T09:24:51.099Z,620.00
2019-02-22T09:25:51.089Z,544.00
2019-02-22T09:27:45.437Z,596.00
2019-02-22T09:28:45.432Z,692.00
2019-02-22T09:30:39.816Z,1128.00
2019-02-22T09:31:39.785Z,1276.00
2019-02-22T09:33:34.157Z,1400.00
2019-02-22T09:34:34.144Z,1460.00
2019-02-22T09:36:28.532Z,1540.00
2019-02-22T09:37:28.503Z,1524.00
2019-02-22T09:39:22.872Z,1316.00
2019-02-22T09:40:22.865Z,1540.00
2019-02-22T09:42:17.278Z,2232.00
2019-02-22T09:43:17.233Z,2220.00
2019-02-22T09:45:11.591Z,2340.00
2019-02-22T09:46:11.582Z,2116.00
2019-02-22T09:48:06.239Z,2236.00
2019-02-22T09:49:05.941Z,1984.00
2019-02-22T09:51:00.309Z,1808.00
2019-02-22T09:52:00.298Z,1804.00
2019-02-22T09:53:54.670Z,1604.00
2019-02-22T09:54:54.668Z,1692.00
2019-02-22T09:56:50.864Z,1852.00
2019-02-22T09:57:49.015Z,1856.00
2019-02-22T09:59:43.372Z,2176.00
2019-02-22T10:00:43.413Z,2180.00
2019-02-22T10:02:37.738Z,1988.00
2019-02-22T10:03:37.721Z,1980.00
2019-02-22T10:05:32.129Z,1920.00
2019-02-22T10:06:32.077Z,1660.00
2019-02-22T10:08:26.441Z,1724.00
2019-02-22T10:09:26.433Z,1864.00
2019-02-22T10:11:20.831Z,1944.00
2019-02-22T10:12:20.788Z,2068.00
2019-02-22T10:14:15.178Z,1440.00
2019-02-22T10:15:15.183Z,1356.00
2019-02-22T10:17:09.542Z,1460.00
2019-02-22T10:18:09.500Z,1296.00
2019-02-22T10:20:03.869Z,1252.00
2019-02-22T10:21:03.864Z,1116.00
2019-02-22T10:22:58.255Z,1116.00
2019-02-22T10:23:58.213Z,1156.00
2019-02-22T10:25:51.666Z,1200.00
2019-02-22T10:26:51.650Z,1304.00
2019-02-22T10:28:46.132Z,1240.00
2019-02-22T10:29:46.014Z,1140.00
2019-02-22T10:31:40.380Z,908.00
2019-02-22T10:32:40.370Z,864.00
2019-02-22T10:34:34.808Z,660.00
2019-02-22T10:35:34.733Z,552.00
2019-02-22T10:37:29.267Z,384.00
2019-02-22T10:38:29.251Z,360.00
2019-02-22T10:40:23.620Z,404.00
2019-02-22T10:41:23.610Z,424.00
2019-02-22T10:43:17.978Z,636.00
2019-02-22T10:44:18.106Z,648.00
2019-02-22T10:46:12.438Z,816.00
2019-02-22T10:47:12.324Z,868.00
2019-02-22T10:49:06.691Z,984.00
2019-02-22T10:50:06.678Z,988.00
2019-02-22T10:52:01.124Z,1168.00
2019-02-22T10:53:02.370Z,1316.00
2019-02-22T10:54:55.399Z,1316.00
2019-02-22T10:55:55.379Z,1332.00
2019-02-22T10:57:49.839Z,1156.00
2019-02-22T10:58:49.783Z,972.00
2019-02-22T11:00:44.102Z,928.00
2019-02-22T11:01:44.093Z,896.00
2019-02-22T11:03:38.477Z,880.00
2019-02-22T11:04:38.497Z,900.00
2019-02-22T11:06:32.804Z,868.00
2019-02-22T11:07:32.798Z,824.00
2019-02-22T11:09:27.196Z,884.00
2019-02-22T11:10:27.149Z,868.00
2019-02-22T11:12:21.532Z,828.00
2019-02-22T11:13:21.576Z,892.00
2019-02-22T11:15:16.931Z,804.00
2019-02-22T11:16:16.903Z,752.00
2019-02-22T11:18:11.266Z,704.00
2019-02-22T11:19:11.265Z,736.00
2019-02-22T11:21:09.858Z,636.00
2019-02-22T11:22:09.815Z,588.00
2019-02-22T11:23:09.828Z,624.00
2019-02-22T11:24:09.799Z,656.00
2019-02-22T11:25:09.792Z,692.00
2019-02-22T11:26:09.879Z,772.00
2019-02-22T11:27:09.779Z,760.00
2019-02-22T11:28:09.770Z,676.00
2019-02-22T11:29:09.759Z,752.00
2019-02-22T11:30:09.759Z,748.00
2019-02-22T11:31:09.749Z,664.00
2019-02-22T11:32:09.743Z,640.00
2019-02-22T11:33:09.731Z,768.00
2019-02-22T11:34:09.720Z,772.00
2019-02-22T11:35:09.719Z,820.00
2019-02-22T11:36:09.704Z,792.00
2019-02-22T11:37:09.698Z,796.00
2019-02-22T11:38:09.692Z,736.00
2019-02-22T11:39:09.681Z,716.00
2019-02-22T11:40:09.673Z,780.00
2019-02-22T11:41:09.664Z,780.00
2019-02-22T11:42:09.731Z,852.00
2019-02-22T11:43:09.650Z,836.00
2019-02-22T11:44:09.663Z,796.00
2019-02-22T11:45:09.635Z,864.00
2019-02-22T11:46:09.635Z,892.00
2019-02-22T11:47:09.611Z,904.00
2019-02-22T11:48:09.688Z,884.00
2019-02-22T11:49:09.596Z,800.00
2019-02-22T11:50:09.587Z,752.00
2019-02-22T11:51:09.580Z,684.00
2019-02-22T11:52:09.571Z,668.00
2019-02-22T11:53:09.567Z,656.00
2019-02-22T11:54:09.555Z,588.00
2019-02-22T11:55:09.704Z,564.00
2019-02-22T11:56:09.545Z,576.00
2019-02-22T11:57:09.610Z,608.00
2019-02-22T11:58:09.656Z,604.00
2019-02-22T11:59:09.567Z,556.00
2019-02-22T12:00:09.505Z,572.00
2019-02-22T12:01:09.565Z,576.00
2019-02-22T12:02:09.485Z,580.00
2019-02-22T12:03:23.599Z,540.00
2019-02-22T12:04:09.472Z,548.00
2019-02-22T12:05:09.460Z,536.00
2019-02-22T12:06:09.450Z,532.00
2019-02-22T12:07:09.440Z,536.00
2019-02-22T12:08:09.435Z,608.00
2019-02-22T12:09:09.425Z,628.00
2019-02-22T12:10:09.416Z,632.00
2019-02-22T12:11:09.414Z,636.00
2019-02-22T12:12:09.400Z,636.00
2019-02-22T12:13:10.191Z,656.00
2019-02-22T12:14:09.432Z,680.00
2019-02-22T12:15:09.372Z,692.00
2019-02-22T12:16:09.370Z,700.00
2019-02-22T12:17:09.354Z,716.00
2019-02-22T12:18:09.354Z,712.00
2019-02-22T12:19:09.338Z,720.00
2019-02-22T12:20:09.345Z,732.00
2019-02-22T12:21:09.352Z,756.00
2019-02-22T12:22:09.309Z,772.00
2019-02-22T12:23:09.303Z,772.00
2019-02-22T12:24:09.293Z,768.00
2019-02-22T12:25:09.284Z,764.00
2019-02-22T12:26:09.277Z,772.00
2019-02-22T12:27:09.270Z,804.00
2019-02-22T12:28:09.280Z,828.00
2019-02-22T12:29:09.318Z,848.00
2019-02-22T12:30:09.241Z,892.00
2019-02-22T12:31:09.252Z,932.00
2019-02-22T12:32:09.221Z,988.00
2019-02-22T12:33:09.214Z,976.00
2019-02-22T12:34:09.235Z,976.00
2019-02-22T12:35:09.196Z,936.00
2019-02-22T12:36:09.707Z,912.00
2019-02-22T12:37:09.180Z,908.00
2019-02-22T12:38:09.174Z,920.00
2019-02-22T12:39:09.165Z,956.00
2019-02-22T12:40:09.154Z,1024.00
2019-02-22T12:41:09.145Z,1004.00
2019-02-22T12:42:09.138Z,960.00
2019-02-22T12:43:09.131Z,944.00
2019-02-22T12:44:09.130Z,940.00
2019-02-22T12:45:09.114Z,916.00
2019-02-22T12:46:09.115Z,972.00
2019-02-22T12:47:10.174Z,1004.00
2019-02-22T12:48:09.113Z,1024.00
2019-02-22T12:49:09.081Z,1076.00
2019-02-22T12:50:09.074Z,1104.00
2019-02-22T12:51:09.071Z,1176.00
2019-02-22T12:52:09.055Z,1156.00
2019-02-22T12:53:09.049Z,1116.00
2019-02-22T12:54:09.039Z,1084.00
2019-02-22T12:55:09.030Z,1100.00
2019-02-22T12:56:09.022Z,1060.00
2019-02-22T12:57:09.012Z,1016.00
2019-02-22T12:58:09.006Z,944.00
2019-02-22T12:59:08.996Z,988.00
2019-02-22T13:00:08.997Z,984.00
2019-02-22T13:01:08.980Z,988.00
2019-02-22T13:02:08.971Z,1008.00
2019-02-22T13:03:08.976Z,976.00
2019-02-22T13:04:08.972Z,996.00
2019-02-22T13:05:08.948Z,1028.00
2019-02-22T13:06:08.942Z,1060.00
2019-02-22T13:07:08.929Z,1032.00
2019-02-22T13:08:08.925Z,996.00
2019-02-22T13:09:08.917Z,968.00
2019-02-22T13:10:08.910Z,972.00
2019-02-22T13:11:08.913Z,976.00
2019-02-22T13:12:14.035Z,936.00
2019-02-22T13:13:08.881Z,828.00
2019-02-22T13:14:09.055Z,784.00
2019-02-22T13:15:14.238Z,700.00
2019-02-22T13:16:08.857Z,720.00
2019-02-22T13:17:08.845Z,732.00
2019-02-22T13:18:08.843Z,688.00
2019-02-22T13:19:08.831Z,732.00
2019-02-22T13:20:08.823Z,772.00
2019-02-22T13:21:08.819Z,720.00
2019-02-22T13:22:08.803Z,684.00
2019-02-22T13:23:08.797Z,736.00
2019-02-22T13:24:08.789Z,728.00
2019-02-22T13:25:08.780Z,712.00
2019-02-22T13:26:08.772Z,636.00
2019-02-22T13:27:08.767Z,616.00
2019-02-22T13:28:08.754Z,628.00
2019-02-22T13:29:08.743Z,572.00
2019-02-22T13:30:08.738Z,544.00
2019-02-22T13:31:08.741Z,548.00
2019-02-22T13:32:08.720Z,548.00
2019-02-22T13:33:08.711Z,544.00
2019-02-22T13:34:08.702Z,544.00
2019-02-22T13:35:10.885Z,564.00
2019-02-22T13:36:08.689Z,548.00
2019-02-22T13:37:08.679Z,524.00
2019-02-22T13:38:08.707Z,484.00
2019-02-22T13:39:08.661Z,512.00
2019-02-22T13:40:08.653Z,540.00
2019-02-22T13:41:08.642Z,544.00
2019-02-22T13:42:08.635Z,580.00
2019-02-22T13:43:08.624Z,620.00
2019-02-22T13:44:08.618Z,636.00
2019-02-22T13:45:09.482Z,652.00
2019-02-22T13:46:08.599Z,668.00
2019-02-22T13:47:08.596Z,612.00
2019-02-22T13:48:08.588Z,660.00
2019-02-22T13:49:08.575Z,656.00
2019-02-22T13:50:08.565Z,652.00
2019-02-22T13:51:08.582Z,668.00
2019-02-22T13:52:08.546Z,688.00
2019-02-22T13:53:08.536Z,688.00
2019-02-22T13:54:08.528Z,672.00
2019-02-22T13:55:08.519Z,684.00
2019-02-22T13:56:08.510Z,688.00
2019-02-22T13:57:08.499Z,676.00
2019-02-22T13:58:08.491Z,708.00
2019-02-22T13:59:08.775Z,708.00
2019-02-22T14:00:08.474Z,720.00
2019-02-22T14:01:08.463Z,732.00
2019-02-22T14:02:08.456Z,688.00
2019-02-22T14:03:08.447Z,636.00
2019-02-22T14:04:08.434Z,592.00
2019-02-22T14:05:08.431Z,636.00
2019-02-22T14:06:08.418Z,644.00
2019-02-22T14:07:08.407Z,624.00
2019-02-22T14:08:08.403Z,664.00
2019-02-22T14:09:08.391Z,692.00
2019-02-22T14:10:08.385Z,712.00
2019-02-22T14:11:08.372Z,740.00
2019-02-22T14:12:08.364Z,700.00
2019-02-22T14:13:08.353Z,648.00
2019-02-22T14:14:08.345Z,608.00
2019-02-22T14:15:08.341Z,600.00
2019-02-22T14:16:08.349Z,596.00
2019-02-22T14:17:08.319Z,624.00
2019-02-22T14:18:08.307Z,620.00
2019-02-22T14:19:08.303Z,600.00
2019-02-22T14:20:08.289Z,588.00
2019-02-22T14:21:08.281Z,568.00
2019-02-22T14:22:08.271Z,536.00
2019-02-22T14:23:08.261Z,496.00
2019-02-22T14:24:08.316Z,492.00
2019-02-22T14:25:08.241Z,504.00
2019-02-22T14:26:08.270Z,492.00
2019-02-22T14:27:08.223Z,468.00
2019-02-22T14:28:08.217Z,452.00
2019-02-22T14:29:08.205Z,448.00
2019-02-22T14:30:08.195Z,436.00
2019-02-22T14:31:08.186Z,440.00
2019-02-22T14:32:08.181Z,436.00
2019-02-22T14:33:08.166Z,428.00
2019-02-22T14:34:08.160Z,444.00
2019-02-22T14:35:08.172Z,456.00
2019-02-22T14:36:08.158Z,496.00
2019-02-22T14:37:08.153Z,496.00
2019-02-22T14:38:08.124Z,464.00
2019-02-22T14:39:08.186Z,504.00
2019-02-22T14:40:08.103Z,564.00
2019-02-22T14:41:08.093Z,596.00
2019-02-22T14:42:08.083Z,568.00
2019-02-22T14:43:16.211Z,600.00
2019-02-22T14:44:08.072Z,632.00
2019-02-22T14:45:08.058Z,620.00
2019-02-22T14:46:08.441Z,620.00
2019-02-22T14:47:08.042Z,620.00
2019-02-22T14:48:08.036Z,560.00
2019-02-22T14:49:08.021Z,564.00
2019-02-22T14:50:08.024Z,524.00
2019-02-22T14:51:08.002Z,524.00
2019-02-22T14:52:07.993Z,464.00
2019-02-22T14:53:18.871Z,460.00
2019-02-22T14:54:07.979Z,524.00
2019-02-22T14:55:07.965Z,496.00
2019-02-22T14:56:07.955Z,500.00
2019-02-22T14:57:07.953Z,472.00
2019-02-22T14:58:07.938Z,452.00
2019-02-22T14:59:07.935Z,396.00